Wayana — PE5639 — position and weather

sailwx.info

Track history (hours):
 
Tides and Currents Weather Stations Pressure Air Temp Water Temp Dewpoint Dewpoint Depression Visibility Wind Speed Wind Dir Waves Ship Positions

Wayana

Last reported at 2015-Apr-17 14:31 UTC. Time now 2015-Apr-22 01:39 UTC.
Position N 52°55' E 005°03'.

Length 14 m.

Type: Sailing vessel. MMSI: 244020670.

Date/timePositionNaut miles runAvg speedWind from/ knotsBaromVisibWave heightAir tempDewpointWater temp
2015-Apr-17 14:31N 52°55' E 005°03'0 0.0
2015-Apr-17 13:31N 52°55' E 005°03'0 0.0
2015-Apr-17 12:25N 52°55' E 005°03'0 0.0
2015-Apr-17 11:31N 52°55' E 005°03'5 5.1
2015-Apr-17 10:33N 52°52' E 005°09'4 4.1
2015-Apr-17 09:33N 52°48' E 005°12'4 3.9
2015-Apr-17 08:31N 52°46' E 005°07'0 0.0
2015-Apr-17 07:31N 52°46' E 005°07'0 0.0
2015-Apr-17 06:31N 52°46' E 005°07'0 0.0
2015-Apr-17 05:31N 52°46' E 005°07'0 0.0
2015-Apr-17 04:31N 52°46' E 005°07'0 0.0
2015-Apr-17 03:31N 52°46' E 005°07'0 0.0
2015-Apr-17 02:31N 52°46' E 005°07'0 0.0
2015-Apr-17 01:31N 52°46' E 005°07'0 0.0
2015-Apr-17 00:31N 52°46' E 005°07'0 0.0
2015-Apr-16 23:28N 52°46' E 005°07'0 0.0
2015-Apr-16 22:31N 52°46' E 005°07'0 0.0
2015-Apr-16 21:31N 52°46' E 005°07'0 0.0
2015-Apr-16 20:31N 52°46' E 005°07'0 0.0
2015-Apr-16 19:31N 52°46' E 005°07'0 0.0
2015-Apr-16 18:31N 52°46' E 005°07'0 0.0
2015-Apr-16 17:31N 52°46' E 005°07'0 0.0
2015-Apr-16 16:31N 52°46' E 005°07'0 0.0
2015-Apr-16 15:31N 52°46' E 005°07'0 0.0
2015-Apr-16 14:31N 52°46' E 005°07'0 0.0
2015-Apr-16 13:33N 52°46' E 005°07'5 4.6
2015-Apr-16 12:33N 52°51' E 005°07'4 4.3
2015-Apr-16 11:33N 52°55' E 005°04'1 1.0
2015-Apr-16 10:32N 52°55' E 005°03'  
Track history (hours):
 
Tides and Currents Weather Stations Pressure Air Temp Water Temp Dewpoint Dewpoint Depression Visibility Wind Speed Wind Dir Waves Ship Positions

Wayana

Last reported at 2015-Apr-17 14:31 UTC. Time now 2015-Apr-22 01:39 UTC.
Position N 52°55' E 005°03'.

Length 14 m.

Type: Sailing vessel. MMSI: 244020670.

Date/timePositionNaut miles runAvg speedWind from/ knotsBaromVisibWave heightAir tempDewpointWater temp
2015-Apr-17 14:31N 52°55' E 005°03'0 0.0
2015-Apr-17 13:31N 52°55' E 005°03'0 0.0
2015-Apr-17 12:25N 52°55' E 005°03'0 0.0
2015-Apr-17 11:31N 52°55' E 005°03'5 5.1
2015-Apr-17 10:33N 52°52' E 005°09'4 4.1
2015-Apr-17 09:33N 52°48' E 005°12'4 3.9
2015-Apr-17 08:31N 52°46' E 005°07'0 0.0
2015-Apr-17 07:31N 52°46' E 005°07'0 0.0
2015-Apr-17 06:31N 52°46' E 005°07'0 0.0
2015-Apr-17 05:31N 52°46' E 005°07'0 0.0
2015-Apr-17 04:31N 52°46' E 005°07'0 0.0
2015-Apr-17 03:31N 52°46' E 005°07'0 0.0
2015-Apr-17 02:31N 52°46' E 005°07'0 0.0
2015-Apr-17 01:31N 52°46' E 005°07'0 0.0
2015-Apr-17 00:31N 52°46' E 005°07'0 0.0
2015-Apr-16 23:28N 52°46' E 005°07'0 0.0
2015-Apr-16 22:31N 52°46' E 005°07'0 0.0
2015-Apr-16 21:31N 52°46' E 005°07'0 0.0
2015-Apr-16 20:31N 52°46' E 005°07'0 0.0
2015-Apr-16 19:31N 52°46' E 005°07'0 0.0
2015-Apr-16 18:31N 52°46' E 005°07'0 0.0
2015-Apr-16 17:31N 52°46' E 005°07'0 0.0
2015-Apr-16 16:31N 52°46' E 005°07'0 0.0
2015-Apr-16 15:31N 52°46' E 005°07'0 0.0
2015-Apr-16 14:31N 52°46' E 005°07'0 0.0
2015-Apr-16 13:33N 52°46' E 005°07'5 4.6
2015-Apr-16 12:33N 52°51' E 005°07'4 4.3
2015-Apr-16 11:33N 52°55' E 005°04'1 1.0
2015-Apr-16 10:32N 52°55' E 005°03'  

Dump ship's entire track history